Time;durP1;ratioP1;P1;durP2;ratioP2;P2;SDS_P1;SDS_P2;PMS_P1;PMS_P2;Temp;Humidity;BMP_temperature;BMP_pressure;BME280_temperature;BME280_humidity;BME280_pressure;Samples;Min_cycle;Max_cycle;Signal;HPM_P1;HPM_P2
2022/03/26 00:00:43;;;;;;;54.80;34.05;;;5.60;98.70;;;;;;5034866;28;20193;-75
2022/03/26 00:03:09;;;;;;;55.42;34.45;;;5.60;98.70;;;;;;5034462;28;20049;-75
2022/03/26 00:05:35;;;;;;;60.05;36.15;;;5.60;98.80;;;;;;5000941;28;20049;-75
2022/03/26 00:08:00;;;;;;;59.72;36.70;;;5.60;98.90;;;;;;5033470;28;20102;-75
2022/03/26 00:10:26;;;;;;;56.35;35.78;;;5.50;98.80;;;;;;5034103;28;20049;-75
2022/03/26 00:12:52;;;;;;;70.60;40.60;;;5.60;98.90;;;;;;5033999;28;20046;-74
2022/03/26 00:15:19;;;;;;;67.70;40.13;;;5.50;99.00;;;;;;5033345;28;20050;-75
2022/03/26 00:17:44;;;;;;;71.28;41.78;;;5.50;99.10;;;;;;5033933;28;20478;-74
2022/03/26 00:20:10;;;;;;;73.03;43.47;;;5.50;99.20;;;;;;5033831;28;20044;-74
2022/03/26 00:22:36;;;;;;;74.70;43.58;;;5.50;99.40;;;;;;5032597;28;20050;-75
2022/03/26 00:25:02;;;;;;;70.28;41.70;;;5.50;99.50;;;;;;5031841;28;20045;-75
2022/03/26 00:27:28;;;;;;;65.95;40.47;;;5.50;99.60;;;;;;5033806;28;20045;-75
2022/03/26 00:29:53;;;;;;;61.58;37.38;;;5.50;99.70;;;;;;5034289;28;20049;-74
2022/03/26 00:32:19;;;;;;;63.13;38.55;;;5.50;99.90;;;;;;5033273;28;20088;-75
2022/03/26 00:34:45;;;;;;;60.88;35.67;;;5.40;99.90;;;;;;5033289;28;20052;-75
2022/03/26 00:37:11;;;;;;;60.90;36.70;;;5.40;99.90;;;;;;5015497;28;20057;-75
2022/03/26 00:39:39;;;;;;;63.58;37.80;;;5.40;99.90;;;;;;5033399;28;20046;-75
2022/03/26 00:42:05;;;;;;;68.03;39.50;;;5.40;99.90;;;;;;5033318;28;20052;-75
2022/03/26 00:44:31;;;;;;;62.83;37.83;;;5.40;99.90;;;;;;5032713;28;20049;-75
2022/03/26 00:46:57;;;;;;;65.03;38.75;;;5.40;99.90;;;;;;5016302;28;20405;-75
2022/03/26 00:49:22;;;;;;;67.68;40.88;;;5.40;99.90;;;;;;5033424;28;20493;-75
2022/03/26 00:51:48;;;;;;;72.97;40.92;;;5.40;99.90;;;;;;5033149;28;20129;-75
2022/03/26 00:54:13;;;;;;;67.32;39.97;;;5.30;99.90;;;;;;5032311;28;20165;-74
2022/03/26 00:56:40;;;;;;;67.45;39.00;;;5.30;99.90;;;;;;5023357;28;20441;-74
2022/03/26 00:59:06;;;;;;;67.45;40.80;;;5.30;99.90;;;;;;5014079;28;20037;-75
2022/03/26 01:01:32;;;;;;;62.42;37.97;;;5.30;99.90;;;;;;5014806;28;20103;-75
2022/03/26 01:03:58;;;;;;;69.38;41.35;;;5.30;99.90;;;;;;5014728;28;20050;-74
2022/03/26 01:06:24;;;;;;;70.82;40.80;;;5.30;99.90;;;;;;5013134;28;20649;-75
2022/03/26 01:08:50;;;;;;;66.50;40.15;;;5.30;99.90;;;;;;4997844;28;20056;-74
2022/03/26 01:11:17;;;;;;;82.10;48.75;;;5.20;99.90;;;;;;5013929;28;20060;-75
2022/03/26 01:13:42;;;;;;;84.28;48.03;;;5.30;99.90;;;;;;5014681;28;20056;-74
2022/03/26 01:16:08;;;;;;;86.00;48.88;;;5.30;99.90;;;;;;5031645;28;20394;-75
2022/03/26 01:18:33;;;;;;;83.28;48.45;;;5.20;99.90;;;;;;5031251;28;20061;-75
2022/03/26 01:21:00;;;;;;;75.60;45.47;;;5.30;99.90;;;;;;5031641;28;20481;-75
2022/03/26 01:23:25;;;;;;;73.32;44.30;;;5.20;99.90;;;;;;5031294;28;20049;-75
2022/03/26 01:25:51;;;;;;;76.82;43.38;;;5.30;99.90;;;;;;5031099;28;20387;-74
2022/03/26 01:28:16;;;;;;;80.78;47.05;;;5.20;99.90;;;;;;5030421;28;20048;-74
2022/03/26 01:30:42;;;;;;;76.05;45.28;;;5.20;99.90;;;;;;5031150;28;20052;-74
2022/03/26 01:33:08;;;;;;;81.55;45.40;;;5.20;99.90;;;;;;5030774;28;20041;-77
2022/03/26 01:35:33;;;;;;;73.15;42.45;;;5.10;99.90;;;;;;5030710;28;20107;-75
2022/03/26 01:38:01;;;;;;;76.53;46.47;;;5.10;99.90;;;;;;5030890;28;20049;-75
2022/03/26 01:40:27;;;;;;;76.75;43.90;;;5.10;99.90;;;;;;5031202;28;20092;-76
2022/03/26 01:42:53;;;;;;;80.63;46.15;;;5.00;99.90;;;;;;5031014;28;20048;-74
2022/03/26 01:45:19;;;;;;;84.80;49.70;;;5.00;99.90;;;;;;5030478;28;20041;-74
2022/03/26 01:47:45;;;;;;;100.10;54.63;;;5.00;99.90;;;;;;5031732;28;20563;-74
2022/03/26 01:50:10;;;;;;;80.88;47.47;;;5.00;99.90;;;;;;5031226;28;20100;-77
2022/03/26 01:55:05;;;;;;;81.65;48.10;;;5.00;99.90;;;;;;5149508;27;1253356;-74
2022/03/26 01:57:31;;;;;;;80.75;47.60;;;4.90;99.90;;;;;;5171766;27;20061;-75
2022/03/26 01:59:57;;;;;;;88.28;49.88;;;4.90;99.90;;;;;;5153793;27;20047;-73
2022/03/26 02:02:23;;;;;;;82.57;48.75;;;4.90;99.90;;;;;;5135853;27;20546;-73
2022/03/26 02:04:49;;;;;;;106.38;59.35;;;4.90;99.90;;;;;;5171999;27;20077;-73
2022/03/26 02:07:14;;;;;;;107.93;58.92;;;4.90;99.90;;;;;;5170920;27;20894;-73
2022/03/26 02:09:40;;;;;;;99.22;56.25;;;4.90;99.90;;;;;;5153157;27;20042;-73
2022/03/26 02:12:25;;;;;;;118.95;67.65;;;4.90;99.90;;;;;;5171086;27;20042;-73
2022/03/26 02:14:51;;;;;;;118.05;67.72;;;4.90;99.90;;;;;;5171987;27;20043;-73
2022/03/26 02:17:17;;;;;;;121.07;67.18;;;5.00;99.90;;;;;;5136066;27;20047;-73
2022/03/26 02:19:49;;;;;;;127.00;70.63;;;5.00;99.90;;;;;;5172184;27;20078;-74
2022/03/26 02:22:15;;;;;;;117.50;67.25;;;5.00;99.90;;;;;;5170940;27;20038;-77
2022/03/26 02:24:40;;;;;;;113.93;65.07;;;5.00;99.90;;;;;;5171105;27;20043;-73
2022/03/26 02:27:07;;;;;;;125.28;69.85;;;5.00;99.90;;;;;;5153127;27;20125;-73
2022/03/26 02:29:33;;;;;;;122.40;68.32;;;5.00;99.90;;;;;;5171066;27;20043;-74
2022/03/26 02:31:58;;;;;;;125.05;68.80;;;5.10;99.90;;;;;;5171007;27;20375;-73
2022/03/26 02:34:24;;;;;;;122.78;68.93;;;5.10;99.90;;;;;;5171287;27;20043;-73
2022/03/26 02:36:54;;;;;;;126.32;71.13;;;5.00;99.90;;;;;;5171065;27;20048;-73
2022/03/26 02:39:20;;;;;;;127.03;73.32;;;5.00;99.90;;;;;;5170435;27;20047;-73
2022/03/26 02:41:46;;;;;;;115.35;64.78;;;4.90;99.90;;;;;;5151902;27;20383;-73
2022/03/26 02:44:11;;;;;;;104.38;58.42;;;4.90;99.90;;;;;;5170738;27;20042;-73
2022/03/26 02:46:37;;;;;;;115.55;62.15;;;4.90;99.90;;;;;;5170460;27;20395;-73
2022/03/26 02:49:03;;;;;;;128.10;73.97;;;4.90;99.90;;;;;;5152564;27;20073;-73
2022/03/26 02:51:28;;;;;;;132.93;76.63;;;4.80;99.90;;;;;;5152028;27;20545;-73
2022/03/26 02:53:54;;;;;;;135.45;76.15;;;4.80;99.90;;;;;;5152157;27;20545;-73
2022/03/26 02:56:20;;;;;;;135.68;77.28;;;4.80;99.90;;;;;;5151524;27;20090;-74
2022/03/26 02:58:47;;;;;;;142.75;78.90;;;4.80;99.90;;;;;;5152176;27;20042;-73
2022/03/26 03:01:13;;;;;;;142.43;79.93;;;4.90;99.90;;;;;;5170504;27;20043;-73
2022/03/26 03:03:39;;;;;;;122.63;69.00;;;4.90;99.90;;;;;;5170048;27;20060;-73
2022/03/26 03:06:04;;;;;;;107.10;61.28;;;4.90;99.90;;;;;;5123543;27;20049;-73
2022/03/26 03:08:30;;;;;;;100.50;58.35;;;4.90;99.90;;;;;;5155959;27;20042;-73
2022/03/26 03:10:56;;;;;;;97.25;54.83;;;4.80;99.90;;;;;;5138739;27;20086;-74
2022/03/26 03:13:22;;;;;;;89.57;51.60;;;4.80;99.90;;;;;;5156390;27;20042;-78
2022/03/26 03:15:49;;;;;;;93.65;53.25;;;4.60;99.90;;;;;;5137673;27;20050;-74
2022/03/26 03:18:15;;;;;;;103.53;60.55;;;4.50;99.90;;;;;;5137855;27;20038;-73
2022/03/26 03:20:41;;;;;;;107.80;60.47;;;4.40;99.90;;;;;;5138108;27;20176;-73
2022/03/26 03:23:06;;;;;;;107.22;61.60;;;4.40;99.90;;;;;;5137927;27;20531;-73
2022/03/26 03:25:32;;;;;;;103.93;59.58;;;4.40;99.90;;;;;;5155880;27;20121;-73
2022/03/26 03:27:58;;;;;;;104.68;58.88;;;4.40;99.90;;;;;;5150880;27;20038;-73
2022/03/26 03:30:25;;;;;;;114.53;61.97;;;4.40;99.90;;;;;;5131086;27;20050;-78
2022/03/26 03:32:51;;;;;;;114.30;62.47;;;4.40;99.90;;;;;;5137388;27;20527;-73
2022/03/26 03:35:17;;;;;;;106.38;60.88;;;4.40;99.90;;;;;;5137451;27;20042;-73
2022/03/26 03:37:43;;;;;;;113.90;61.80;;;4.40;99.90;;;;;;5155119;27;20045;-73
2022/03/26 03:40:09;;;;;;;112.65;62.10;;;4.40;99.90;;;;;;5155595;27;20455;-73
2022/03/26 03:42:35;;;;;;;109.53;61.05;;;4.40;99.90;;;;;;5136499;27;20095;-73
2022/03/26 03:45:00;;;;;;;112.68;63.42;;;4.40;99.90;;;;;;5131477;27;20043;-73
2022/03/26 03:47:26;;;;;;;117.65;63.72;;;4.40;99.90;;;;;;5155659;27;20038;-74
2022/03/26 03:49:52;;;;;;;120.60;68.03;;;4.40;99.90;;;;;;5137052;27;20045;-74
2022/03/26 03:52:18;;;;;;;131.52;70.55;;;4.40;99.90;;;;;;5155371;27;20047;-74
2022/03/26 03:54:43;;;;;;;133.90;71.72;;;4.30;99.90;;;;;;5154791;27;20061;-73
2022/03/26 03:57:09;;;;;;;131.68;73.50;;;4.40;99.90;;;;;;5155218;27;20368;-73
2022/03/26 03:59:35;;;;;;;132.18;74.72;;;4.40;99.90;;;;;;5155655;27;20055;-73
2022/03/26 04:02:01;;;;;;;134.18;75.82;;;4.40;99.90;;;;;;5137596;27;20049;-74
2022/03/26 04:04:26;;;;;;;115.93;65.07;;;4.60;99.90;;;;;;5155938;27;20378;-74
2022/03/26 04:06:52;;;;;;;124.05;69.88;;;4.50;99.90;;;;;;5155135;27;20390;-73
2022/03/26 04:09:17;;;;;;;126.50;67.13;;;4.50;99.90;;;;;;5155667;27;20053;-73
2022/03/26 04:11:43;;;;;;;120.15;63.83;;;4.50;99.90;;;;;;5154635;27;20042;-73
2022/03/26 04:14:09;;;;;;;110.85;60.47;;;4.40;99.90;;;;;;5155312;27;20042;-73
2022/03/26 04:16:34;;;;;;;112.20;59.42;;;4.40;99.90;;;;;;5154348;27;20387;-73
2022/03/26 04:19:00;;;;;;;109.63;63.45;;;4.30;99.90;;;;;;5155798;27;20390;-73
2022/03/26 04:21:26;;;;;;;111.32;62.28;;;4.20;99.90;;;;;;5154872;27;20042;-74
2022/03/26 04:23:51;;;;;;;124.85;68.43;;;4.20;99.90;;;;;;5154355;27;20039;-73
2022/03/26 04:26:17;;;;;;;124.93;67.43;;;4.20;99.90;;;;;;5155108;27;20050;-73
2022/03/26 04:28:43;;;;;;;111.60;62.85;;;4.20;99.90;;;;;;5136840;27;20091;-73
2022/03/26 04:31:09;;;;;;;107.32;58.25;;;4.20;99.90;;;;;;5154868;27;20054;-73
2022/03/26 04:33:34;;;;;;;119.55;66.45;;;4.20;99.90;;;;;;5118883;27;20042;-73
2022/03/26 04:36:00;;;;;;;120.05;65.10;;;4.20;99.90;;;;;;5154702;27;20042;-74
2022/03/26 04:38:26;;;;;;;111.63;62.17;;;4.20;99.90;;;;;;5119163;27;20046;-74
2022/03/26 04:40:51;;;;;;;117.03;62.92;;;4.00;99.90;;;;;;5154954;27;20047;-73
2022/03/26 04:43:18;;;;;;;118.15;64.55;;;4.00;99.90;;;;;;5155172;27;20056;-73
2022/03/26 04:45:44;;;;;;;114.38;61.50;;;4.00;99.90;;;;;;5154730;27;20063;-73
2022/03/26 04:48:10;;;;;;;118.25;66.45;;;4.00;99.90;;;;;;5136803;27;20395;-73
2022/03/26 04:50:35;;;;;;;127.20;66.70;;;3.90;99.90;;;;;;5154091;27;20043;-73
2022/03/26 04:53:01;;;;;;;124.78;67.45;;;3.90;99.90;;;;;;5154668;27;20042;-74
2022/03/26 04:55:27;;;;;;;138.18;74.55;;;4.00;99.90;;;;;;5135570;27;20110;-73
2022/03/26 04:57:52;;;;;;;132.75;70.65;;;4.00;99.90;;;;;;5153985;27;20165;-73
2022/03/26 05:00:19;;;;;;;131.20;71.85;;;4.00;99.90;;;;;;5154338;27;20500;-73
2022/03/26 05:02:44;;;;;;;134.25;72.45;;;4.00;99.90;;;;;;5118923;27;20049;-73
2022/03/26 05:05:11;;;;;;;133.95;72.85;;;4.00;99.90;;;;;;5154219;27;20039;-73
2022/03/26 05:07:45;;;;;;;141.00;75.80;;;4.10;99.90;;;;;;5153548;27;20084;-77
2022/03/26 05:10:22;;;;;;;140.88;76.18;;;4.10;99.90;;;;;;5154231;27;20050;-74
2022/03/26 05:12:48;;;;;;;133.13;71.53;;;4.00;99.90;;;;;;5135242;27;20062;-73
2022/03/26 05:15:14;;;;;;;106.55;60.10;;;4.10;99.90;;;;;;5118102;27;20039;-75
2022/03/26 05:17:40;;;;;;;109.10;62.25;;;4.00;99.90;;;;;;5154220;27;20038;-73
2022/03/26 05:20:06;;;;;;;110.72;62.70;;;3.90;99.90;;;;;;5153753;27;20071;-72
2022/03/26 05:22:32;;;;;;;113.68;60.53;;;3.80;99.90;;;;;;5136215;27;20051;-73
2022/03/26 05:24:57;;;;;;;112.65;61.70;;;3.70;99.90;;;;;;5135588;27;20371;-72
2022/03/26 05:27:23;;;;;;;112.25;62.38;;;3.70;99.90;;;;;;5136251;27;20042;-72
2022/03/26 05:29:49;;;;;;;110.85;62.17;;;3.60;99.90;;;;;;5135589;27;20043;-73
2022/03/26 05:32:15;;;;;;;119.00;62.05;;;3.60;99.90;;;;;;5154634;27;20094;-72
2022/03/26 05:34:41;;;;;;;112.75;62.42;;;3.60;99.90;;;;;;5154043;27;20125;-73
2022/03/26 05:37:07;;;;;;;116.95;62.35;;;3.60;99.90;;;;;;5119115;27;20042;-72
2022/03/26 05:39:33;;;;;;;118.82;65.40;;;3.50;99.90;;;;;;5154486;27;20046;-73
2022/03/26 05:41:58;;;;;;;116.90;63.25;;;3.60;99.90;;;;;;5154017;27;20077;-73
2022/03/26 05:44:24;;;;;;;112.85;62.00;;;3.60;99.90;;;;;;5154453;27;20068;-72
2022/03/26 05:46:50;;;;;;;120.28;64.80;;;3.60;99.90;;;;;;5135555;27;20053;-72
2022/03/26 05:49:16;;;;;;;114.10;63.30;;;3.60;99.90;;;;;;5136049;27;20046;-72
2022/03/26 05:51:45;;;;;;;119.70;65.10;;;3.60;99.90;;;;;;5154318;27;20501;-72
2022/03/26 05:54:10;;;;;;;120.30;63.92;;;3.70;99.90;;;;;;5135590;27;20059;-73
2022/03/26 05:56:36;;;;;;;121.28;67.10;;;3.70;99.90;;;;;;5132046;27;20054;-74
2022/03/26 05:59:11;;;;;;;124.47;65.88;;;3.70;99.90;;;;;;5109879;27;20051;-72
2022/03/26 06:01:37;;;;;;;128.43;67.63;;;3.70;99.90;;;;;;5135662;27;20043;-73
2022/03/26 06:04:03;;;;;;;122.57;64.35;;;3.70;99.90;;;;;;5110310;27;20046;-72
2022/03/26 06:06:28;;;;;;;107.15;57.40;;;3.80;99.90;;;;;;5135166;27;20046;-73
2022/03/26 06:08:54;;;;;;;112.47;60.10;;;3.80;99.90;;;;;;5134791;27;20103;-73
2022/03/26 06:11:20;;;;;;;108.88;58.40;;;3.80;99.90;;;;;;5114897;28;20043;-73
2022/03/26 06:13:46;;;;;;;126.38;67.70;;;3.80;99.90;;;;;;5119180;28;20517;-78
2022/03/26 06:16:11;;;;;;;107.50;59.40;;;3.80;99.90;;;;;;5126413;27;20054;-73
2022/03/26 06:18:38;;;;;;;116.05;62.03;;;3.90;99.90;;;;;;5134571;27;20062;-73
2022/03/26 06:21:05;;;;;;;101.10;55.40;;;3.90;99.90;;;;;;5133702;27;20050;-72
2022/03/26 06:23:32;;;;;;;99.22;55.15;;;3.90;99.90;;;;;;5118437;27;20051;-72
2022/03/26 06:25:57;;;;;;;102.43;56.05;;;3.90;99.90;;;;;;5150944;27;20043;-73
2022/03/26 06:28:23;;;;;;;102.30;56.88;;;3.90;99.90;;;;;;5132804;28;20112;-72
2022/03/26 06:30:49;;;;;;;108.20;58.33;;;3.90;99.90;;;;;;5132540;28;20090;-73
2022/03/26 06:33:16;;;;;;;108.88;59.53;;;3.90;99.90;;;;;;5132853;28;20039;-73
2022/03/26 06:35:42;;;;;;;103.18;59.42;;;4.00;99.90;;;;;;5115023;28;20043;-72
2022/03/26 06:38:08;;;;;;;125.63;65.60;;;4.00;99.90;;;;;;5132707;28;20063;-73
2022/03/26 06:40:34;;;;;;;134.38;72.63;;;4.00;99.90;;;;;;5134851;27;20096;-72
2022/03/26 06:42:59;;;;;;;132.38;70.45;;;4.10;99.90;;;;;;5136659;27;20372;-72
2022/03/26 06:45:25;;;;;;;144.18;75.70;;;4.20;99.90;;;;;;5136815;27;20043;-71
2022/03/26 06:47:51;;;;;;;148.38;80.45;;;4.20;99.90;;;;;;5118020;27;20055;-72
2022/03/26 06:50:16;;;;;;;151.80;78.72;;;4.30;99.90;;;;;;5118657;27;20051;-71
2022/03/26 06:52:42;;;;;;;151.15;78.97;;;4.40;99.90;;;;;;5136859;27;20091;-72
2022/03/26 06:55:08;;;;;;;147.38;77.43;;;4.40;99.90;;;;;;5136571;27;20068;-72
2022/03/26 06:57:34;;;;;;;141.05;76.63;;;4.50;99.90;;;;;;5136899;27;20043;-72
2022/03/26 06:59:59;;;;;;;139.93;77.47;;;4.60;99.90;;;;;;5136273;27;20053;-72
2022/03/26 07:02:25;;;;;;;136.07;74.72;;;4.60;99.90;;;;;;5136818;27;20082;-72
2022/03/26 07:04:51;;;;;;;140.50;77.22;;;4.70;99.90;;;;;;5136727;27;20054;-72
2022/03/26 07:07:17;;;;;;;146.07;79.53;;;4.70;99.90;;;;;;5135869;27;20039;-72
2022/03/26 07:09:43;;;;;;;142.02;78.18;;;4.80;99.90;;;;;;5135782;27;20043;-72
2022/03/26 07:12:09;;;;;;;141.45;78.65;;;4.80;99.90;;;;;;5135590;27;20092;-72
2022/03/26 07:14:34;;;;;;;146.52;77.22;;;4.90;99.90;;;;;;5118184;27;20035;-73
2022/03/26 07:17:00;;;;;;;139.45;77.13;;;5.00;99.90;;;;;;5135918;27;20050;-73
2022/03/26 07:19:26;;;;;;;138.88;75.93;;;5.10;99.90;;;;;;5136245;27;20043;-73
2022/03/26 07:21:51;;;;;;;147.32;76.38;;;5.10;99.90;;;;;;5118191;27;20500;-73
2022/03/26 07:24:17;;;;;;;139.68;75.13;;;5.20;99.90;;;;;;5135734;27;20042;-73
2022/03/26 07:26:43;;;;;;;138.32;73.93;;;5.30;99.90;;;;;;5136059;27;20080;-72
2022/03/26 07:29:08;;;;;;;134.55;74.13;;;5.30;99.90;;;;;;5135235;27;20589;-72
2022/03/26 07:31:34;;;;;;;137.15;71.90;;;5.40;99.90;;;;;;5117704;27;20043;-72
2022/03/26 07:33:59;;;;;;;133.82;72.18;;;5.50;99.90;;;;;;5117280;27;20039;-73
2022/03/26 07:36:25;;;;;;;134.57;74.38;;;5.60;99.90;;;;;;5136103;27;20035;-72
2022/03/26 07:38:51;;;;;;;137.45;73.75;;;5.70;99.90;;;;;;5135798;27;20054;-73
2022/03/26 07:41:16;;;;;;;132.18;69.28;;;5.70;99.90;;;;;;5135566;27;20542;-73
2022/03/26 07:43:42;;;;;;;133.85;72.53;;;5.80;99.90;;;;;;5135849;27;20050;-72
2022/03/26 07:46:08;;;;;;;130.73;70.10;;;5.90;99.90;;;;;;5135429;27;20054;-73
2022/03/26 07:48:34;;;;;;;126.82;69.00;;;5.90;99.90;;;;;;5117847;27;20047;-73
2022/03/26 07:50:59;;;;;;;128.77;68.18;;;6.10;99.90;;;;;;5116913;27;20043;-72
2022/03/26 07:53:27;;;;;;;121.20;67.03;;;6.20;99.90;;;;;;5117091;27;20364;-71
2022/03/26 07:55:53;;;;;;;127.03;70.15;;;6.20;99.90;;;;;;5135794;27;20055;-71
2022/03/26 07:58:19;;;;;;;128.90;69.78;;;6.30;99.90;;;;;;5134847;27;20063;-71
2022/03/26 08:00:44;;;;;;;122.15;64.85;;;6.50;99.90;;;;;;5135599;27;20043;-71
2022/03/26 08:03:10;;;;;;;118.28;64.88;;;6.50;99.90;;;;;;5134954;27;20049;-72
2022/03/26 08:05:36;;;;;;;111.85;61.53;;;6.60;99.90;;;;;;5135249;27;20417;-72
2022/03/26 08:08:02;;;;;;;110.05;60.20;;;6.70;99.90;;;;;;5134989;27;20047;-72
2022/03/26 08:10:27;;;;;;;104.40;58.47;;;6.80;99.90;;;;;;5100105;27;20054;-72
2022/03/26 08:12:53;;;;;;;98.72;55.88;;;6.80;99.90;;;;;;5135308;27;20088;-72
2022/03/26 08:15:19;;;;;;;100.30;54.13;;;6.90;99.90;;;;;;5134925;27;20047;-72
2022/03/26 08:17:44;;;;;;;101.28;54.97;;;7.10;99.90;;;;;;5100299;27;20130;-72
2022/03/26 08:20:10;;;;;;;99.95;52.95;;;7.10;99.90;;;;;;5134816;27;20394;-72
2022/03/26 08:22:36;;;;;;;94.45;52.90;;;7.30;99.90;;;;;;5117014;27;20050;-72
2022/03/26 08:25:02;;;;;;;94.13;52.40;;;7.40;99.90;;;;;;5116898;27;20039;-73
2022/03/26 08:27:28;;;;;;;81.75;49.70;;;7.50;99.90;;;;;;5144902;27;20457;-72
2022/03/26 08:29:54;;;;;;;82.35;48.40;;;7.60;99.90;;;;;;5119855;27;20038;-73
2022/03/26 08:32:19;;;;;;;85.85;46.72;;;7.80;99.90;;;;;;5132275;27;20050;-72
2022/03/26 08:34:45;;;;;;;81.22;48.88;;;7.90;99.90;;;;;;5151981;27;20501;-72
2022/03/26 08:37:11;;;;;;;87.82;50.75;;;8.00;99.90;;;;;;5154828;27;20049;-72
2022/03/26 08:39:37;;;;;;;84.72;47.67;;;8.00;99.90;;;;;;5155112;27;20039;-72
2022/03/26 08:42:03;;;;;;;87.60;50.15;;;8.10;99.90;;;;;;5155077;27;20038;-72
2022/03/26 08:44:29;;;;;;;85.63;47.88;;;8.20;99.90;;;;;;5154639;27;20083;-72
2022/03/26 08:46:55;;;;;;;79.55;48.22;;;8.30;99.90;;;;;;5155095;27;20058;-71
2022/03/26 08:49:21;;;;;;;79.15;46.22;;;8.40;99.90;;;;;;5118825;27;20046;-72
2022/03/26 08:51:46;;;;;;;77.78;45.42;;;8.50;99.90;;;;;;5154464;27;20035;-71
2022/03/26 08:54:12;;;;;;;79.20;47.28;;;8.60;99.90;;;;;;5135597;27;20098;-73
2022/03/26 08:56:38;;;;;;;73.78;45.55;;;8.70;99.90;;;;;;5128366;27;20051;-72
2022/03/26 08:59:03;;;;;;;74.20;43.90;;;8.70;99.90;;;;;;5134098;27;20095;-73
2022/03/26 09:01:29;;;;;;;81.63;46.58;;;8.80;99.90;;;;;;5133820;27;20060;-73
2022/03/26 09:03:55;;;;;;;84.03;47.67;;;8.80;99.90;;;;;;5133819;27;20478;-72
2022/03/26 09:06:20;;;;;;;79.50;48.28;;;8.90;99.90;;;;;;5133752;27;20458;-73
2022/03/26 09:08:46;;;;;;;73.90;45.95;;;8.90;99.90;;;;;;5116328;27;20058;-73
2022/03/26 09:11:12;;;;;;;65.32;39.65;;;9.00;99.90;;;;;;5133638;27;20043;-73
2022/03/26 09:13:38;;;;;;;66.93;38.90;;;9.20;99.90;;;;;;5134173;27;20475;-73
2022/03/26 09:16:04;;;;;;;64.97;40.05;;;9.40;99.90;;;;;;5115862;27;20085;-76
2022/03/26 09:18:30;;;;;;;62.13;38.08;;;9.50;99.90;;;;;;5115582;27;20054;-73
2022/03/26 09:20:55;;;;;;;59.17;39.03;;;9.60;99.90;;;;;;5098774;27;20050;-72
2022/03/26 09:23:21;;;;;;;59.53;35.83;;;9.70;99.90;;;;;;5133618;27;20039;-72
2022/03/26 09:25:47;;;;;;;60.80;35.60;;;9.70;99.90;;;;;;5133997;27;20039;-72
2022/03/26 09:28:12;;;;;;;51.30;33.42;;;9.90;99.90;;;;;;5133400;27;20130;-72
2022/03/26 09:30:38;;;;;;;50.78;32.78;;;10.00;99.90;;;;;;5133913;27;20050;-73
2022/03/26 09:33:04;;;;;;;55.65;35.75;;;10.10;99.90;;;;;;5133880;27;20159;-73
2022/03/26 09:35:29;;;;;;;53.55;33.80;;;10.20;99.90;;;;;;5115139;27;20043;-73
2022/03/26 09:37:55;;;;;;;51.88;32.65;;;10.30;99.90;;;;;;5115467;27;20180;-72
2022/03/26 09:40:24;;;;;;;49.38;32.85;;;10.40;99.90;;;;;;5114960;27;20290;-73
2022/03/26 09:42:50;;;;;;;51.83;33.22;;;10.40;99.90;;;;;;5115976;27;20035;-75
2022/03/26 09:45:16;;;;;;;47.25;31.77;;;10.50;99.90;;;;;;5133295;27;20047;-74
2022/03/26 09:47:42;;;;;;;45.70;31.30;;;10.60;99.90;;;;;;5115402;27;20388;-73
2022/03/26 09:50:09;;;;;;;45.13;29.30;;;10.70;99.90;;;;;;5134025;27;20047;-74
2022/03/26 09:52:35;;;;;;;40.95;29.63;;;10.80;99.90;;;;;;5081145;28;20558;-74
2022/03/26 09:55:00;;;;;;;41.85;26.70;;;10.90;99.90;;;;;;5111653;28;20055;-73
2022/03/26 09:57:26;;;;;;;37.85;27.23;;;11.10;99.90;;;;;;5111396;28;20062;-74
2022/03/26 09:59:52;;;;;;;44.70;28.17;;;11.10;99.90;;;;;;5113079;28;20035;-74
2022/03/26 10:02:17;;;;;;;39.28;25.73;;;11.20;99.90;;;;;;5111388;28;20047;-72
2022/03/26 10:04:44;;;;;;;32.30;23.75;;;11.30;99.90;;;;;;5111825;28;20048;-71
2022/03/26 10:07:10;;;;;;;31.75;22.08;;;11.30;99.90;;;;;;5113030;28;20397;-72
2022/03/26 10:09:37;;;;;;;34.17;24.00;;;11.40;99.90;;;;;;5111473;28;20260;-72
2022/03/26 10:12:03;;;;;;;30.85;22.92;;;11.50;99.90;;;;;;5113074;28;20055;-72
2022/03/26 10:14:46;;;;;;;27.58;19.70;;;11.60;99.90;;;;;;5111278;28;20043;-72
2022/03/26 10:17:12;;;;;;;29.58;20.13;;;11.70;99.90;;;;;;5115812;28;20051;-72
2022/03/26 10:19:42;;;;;;;28.73;19.00;;;11.80;99.90;;;;;;5116610;27;20066;-72
2022/03/26 10:22:30;;;;;;;31.92;21.58;;;11.90;99.90;;;;;;5117286;28;20131;-71
2022/03/26 10:24:57;;;;;;;27.60;18.88;;;12.00;99.90;;;;;;5117117;28;20043;-71
2022/03/26 10:27:23;;;;;;;33.78;17.90;;;12.10;99.90;;;;;;5116409;28;20392;-72
2022/03/26 10:29:53;;;;;;;20.95;16.40;;;12.10;99.90;;;;;;5116768;28;20048;-71
2022/03/26 10:35:27;;;;;;;20.38;15.60;;;12.20;99.10;;;;;;5116739;28;20164;-71
2022/03/26 10:37:58;;;;;;;23.13;16.65;;;12.30;99.20;;;;;;5116757;28;20051;-71
2022/03/26 10:40:33;;;;;;;21.73;14.80;;;12.30;99.20;;;;;;5116310;27;20054;-72
2022/03/26 10:43:10;;;;;;;18.65;14.65;;;12.30;99.00;;;;;;5116564;28;20051;-72
2022/03/26 10:45:37;;;;;;;18.98;15.23;;;12.40;98.50;;;;;;5116288;28;20082;-72
2022/03/26 10:48:07;;;;;;;23.92;15.93;;;12.50;98.00;;;;;;5115146;28;20172;-72
2022/03/26 10:50:33;;;;;;;24.10;17.20;;;12.60;97.40;;;;;;5115897;27;20055;-72
2022/03/26 10:53:05;;;;;;;20.80;15.55;;;12.60;97.40;;;;;;5115993;28;20101;-73
2022/03/26 10:55:31;;;;;;;21.10;15.05;;;12.70;97.30;;;;;;5114369;28;20059;-73
2022/03/26 10:57:56;;;;;;;17.17;12.25;;;12.70;97.00;;;;;;5127262;27;20043;-73
2022/03/26 11:00:22;;;;;;;16.13;11.40;;;12.80;96.10;;;;;;5111642;27;20141;-75
2022/03/26 11:02:48;;;;;;;10.20;8.07;;;12.90;95.60;;;;;;5135779;27;20039;-73
2022/03/26 11:05:13;;;;;;;11.13;7.40;;;13.00;94.40;;;;;;5136206;27;20042;-72
2022/03/26 11:07:41;;;;;;;11.85;7.40;;;13.00;93.70;;;;;;5135903;27;20039;-72
2022/03/26 11:10:08;;;;;;;10.13;7.32;;;13.10;93.30;;;;;;5134879;27;20039;-72
2022/03/26 11:12:35;;;;;;;13.95;6.97;;;13.20;92.50;;;;;;5134282;27;20043;-72
2022/03/26 11:15:03;;;;;;;11.48;6.85;;;13.20;92.80;;;;;;5128767;27;20043;-73
2022/03/26 11:17:39;;;;;;;8.40;6.65;;;13.30;92.50;;;;;;5134286;27;20122;-72
2022/03/26 11:20:09;;;;;;;9.70;6.93;;;13.30;91.70;;;;;;5135752;27;20460;-73
2022/03/26 11:22:47;;;;;;;9.00;6.60;;;13.40;91.90;;;;;;5133919;27;20055;-73
2022/03/26 11:25:21;;;;;;;8.07;5.97;;;13.50;91.30;;;;;;5119853;27;20471;-73
2022/03/26 11:28:00;;;;;;;10.40;6.15;;;13.50;91.40;;;;;;5133953;27;20054;-73
2022/03/26 11:30:50;;;;;;;7.70;5.90;;;13.50;91.20;;;;;;5134959;27;20047;-73
2022/03/26 11:33:15;;;;;;;8.30;5.68;;;13.60;89.20;;;;;;5134950;27;20132;-73
2022/03/26 11:35:55;;;;;;;7.05;5.03;;;13.60;90.80;;;;;;5117181;27;20096;-75
2022/03/26 11:38:23;;;;;;;10.60;6.03;;;13.70;89.90;;;;;;5136137;27;20402;-73
2022/03/26 11:40:54;;;;;;;8.65;5.68;;;13.80;90.40;;;;;;5135475;27;20451;-73
2022/03/26 11:43:42;;;;;;;7.28;4.93;;;13.80;89.40;;;;;;5134771;27;20126;-73
2022/03/26 11:51:37;;;;;;;9.05;5.63;;;14.00;88.10;;;;;;5134547;27;20069;-73
2022/03/26 11:54:07;;;;;;;10.93;6.32;;;14.10;87.70;;;;;;5141142;27;20077;-74
2022/03/26 11:56:33;;;;;;;8.82;6.78;;;14.10;87.90;;;;;;5155916;27;20053;-74
2022/03/26 11:59:03;;;;;;;9.40;6.65;;;14.20;88.20;;;;;;5120811;27;20047;-74
2022/03/26 12:01:37;;;;;;;10.30;6.70;;;14.20;88.00;;;;;;5156364;27;20050;-73
2022/03/26 12:04:16;;;;;;;9.45;6.03;;;14.30;87.10;;;;;;5156155;27;20070;-73
2022/03/26 12:06:49;;;;;;;8.52;6.80;;;14.30;87.30;;;;;;5137376;27;20082;-74
2022/03/26 12:09:35;;;;;;;9.07;7.00;;;14.40;87.40;;;;;;5156502;27;20045;-74
2022/03/26 12:12:13;;;;;;;12.30;7.10;;;14.40;86.00;;;;;;5156057;27;20046;-74
2022/03/26 12:15:12;;;;;;;8.57;7.68;;;14.40;86.20;;;;;;5155567;27;20043;-74
2022/03/26 12:17:42;;;;;;;9.93;7.78;;;14.50;86.40;;;;;;5155493;27;20054;-74
2022/03/26 12:20:41;;;;;;;8.80;7.90;;;14.50;87.60;;;;;;5137617;27;20133;-74
2022/03/26 12:23:15;;;;;;;11.85;7.38;;;14.50;85.40;;;;;;5139687;27;20291;-73
2022/03/26 12:25:53;;;;;;;8.73;7.22;;;14.50;87.00;;;;;;5136950;27;20054;-74
2022/03/26 12:28:26;;;;;;;10.70;6.72;;;14.50;87.00;;;;;;5155299;27;20508;-74
2022/03/26 12:30:55;;;;;;;8.63;7.03;;;14.50;88.00;;;;;;5137758;27;20050;-74
2022/03/26 12:33:21;;;;;;;9.43;6.63;;;14.60;88.80;;;;;;5155530;27;20125;-73
2022/03/26 12:35:48;;;;;;;9.25;5.88;;;14.60;88.40;;;;;;5155152;27;20130;-74
2022/03/26 12:38:14;;;;;;;7.38;5.93;;;14.60;89.10;;;;;;5136486;27;20478;-73
2022/03/26 12:40:40;;;;;;;7.50;5.78;;;14.80;89.10;;;;;;5154962;27;20163;-74